Time;durP1;ratioP1;P1;durP2;ratioP2;P2;SDS_P1;SDS_P2;PMS_P1;PMS_P2;Temp;Humidity;BMP_temperature;BMP_pressure;BME280_temperature;BME280_humidity;BME280_pressure;Samples;Min_cycle;Max_cycle;Signal;HPM_P1;HPM_P2
2023/05/27 00:01:36;;;;;;;12.05;4.05;;;13.00;99.90;;;;;;4158036;28;20071;-62
2023/05/27 00:03:37;;;;;;;11.45;4.03;;;12.90;99.90;;;;;;4159436;28;20044;-62
2023/05/27 00:05:37;;;;;;;10.93;4.20;;;12.90;99.90;;;;;;4159433;28;20385;-62
2023/05/27 00:07:38;;;;;;;10.63;3.55;;;13.00;99.90;;;;;;4159977;28;20120;-61
2023/05/27 00:09:39;;;;;;;11.80;3.40;;;13.10;99.90;;;;;;4158843;28;20029;-61
2023/05/27 00:11:39;;;;;;;12.27;4.25;;;13.20;99.90;;;;;;4159413;28;20128;-61
2023/05/27 00:13:40;;;;;;;15.80;4.40;;;13.20;99.90;;;;;;4158481;28;20033;-62
2023/05/27 00:15:41;;;;;;;13.07;4.03;;;13.20;99.90;;;;;;4158312;28;20033;-63
2023/05/27 00:17:42;;;;;;;12.23;3.90;;;13.20;99.90;;;;;;4159064;28;20044;-62
2023/05/27 00:19:47;;;;;;;13.68;4.32;;;13.20;99.90;;;;;;4158930;28;20033;-61
2023/05/27 00:21:48;;;;;;;14.23;4.25;;;13.20;99.90;;;;;;4158298;28;20065;-61
2023/05/27 00:23:51;;;;;;;12.48;3.70;;;13.20;99.90;;;;;;4160184;28;20040;-61
2023/05/27 00:25:52;;;;;;;11.55;4.05;;;13.20;99.90;;;;;;4155836;28;20033;-61
2023/05/27 00:27:55;;;;;;;11.90;3.65;;;13.10;99.90;;;;;;4159560;28;20494;-61
2023/05/27 00:29:56;;;;;;;11.35;3.33;;;13.20;99.90;;;;;;4159790;28;20038;-61
2023/05/27 00:31:56;;;;;;;11.57;3.95;;;13.20;99.90;;;;;;4158597;28;20531;-61
2023/05/27 00:33:57;;;;;;;9.77;3.22;;;13.20;99.90;;;;;;4159453;28;20076;-61
2023/05/27 00:35:58;;;;;;;13.75;3.75;;;13.10;99.90;;;;;;4158505;28;20168;-61
2023/05/27 00:37:58;;;;;;;13.98;3.90;;;13.10;99.90;;;;;;4156878;28;20092;-61
2023/05/27 00:39:59;;;;;;;14.43;3.92;;;13.10;99.90;;;;;;4156985;28;20041;-61
2023/05/27 00:42:01;;;;;;;10.90;3.78;;;13.10;99.90;;;;;;4157616;28;20055;-61
2023/05/27 00:44:03;;;;;;;12.88;4.60;;;13.10;99.90;;;;;;4156151;28;20049;-61
2023/05/27 00:46:04;;;;;;;11.25;3.58;;;13.10;99.90;;;;;;4156987;28;20424;-61
2023/05/27 00:48:04;;;;;;;11.30;3.90;;;13.00;99.90;;;;;;4158257;28;20033;-61
2023/05/27 00:50:07;;;;;;;11.25;4.32;;;13.00;99.90;;;;;;4158530;28;20512;-62
2023/05/27 00:52:08;;;;;;;16.33;3.95;;;12.90;99.90;;;;;;4158232;28;20515;-61
2023/05/27 00:54:10;;;;;;;11.95;3.78;;;12.90;99.90;;;;;;4159083;28;20030;-62
2023/05/27 00:56:15;;;;;;;12.00;3.80;;;12.90;99.90;;;;;;4154784;28;20025;-61
2023/05/27 00:58:15;;;;;;;10.25;4.05;;;12.90;99.90;;;;;;4157956;28;20124;-61
2023/05/27 01:00:16;;;;;;;8.60;3.38;;;12.90;99.90;;;;;;4158267;28;20566;-61
2023/05/27 01:02:17;;;;;;;11.85;3.58;;;12.90;99.90;;;;;;4156662;28;20103;-61
2023/05/27 01:04:18;;;;;;;8.93;3.80;;;12.80;99.90;;;;;;4159773;28;20039;-61
2023/05/27 01:06:39;;;;;;;13.77;3.75;;;12.70;99.90;;;;;;4157397;28;20053;-61
2023/05/27 01:09:03;;;;;;;12.77;3.83;;;12.70;99.90;;;;;;4151403;28;20026;-61
2023/05/27 01:11:08;;;;;;;12.75;4.18;;;12.60;99.90;;;;;;4157174;28;20026;-61
2023/05/27 01:13:24;;;;;;;10.38;4.20;;;12.50;99.90;;;;;;4158044;28;20037;-61
2023/05/27 01:15:25;;;;;;;10.38;3.55;;;12.40;99.90;;;;;;4157872;28;20219;-61
2023/05/27 01:17:27;;;;;;;9.20;3.63;;;12.40;99.90;;;;;;4154088;28;20037;-61
2023/05/27 01:19:36;;;;;;;11.70;4.18;;;12.40;99.90;;;;;;4160232;28;20029;-61
2023/05/27 01:21:39;;;;;;;12.60;3.70;;;12.30;99.90;;;;;;4159958;28;20120;-61
2023/05/27 01:23:42;;;;;;;;;;;12.20;99.90;;;;;;4160551;28;20435;-61
2023/05/27 01:25:43;;;;;;;12.82;3.40;;;12.20;99.90;;;;;;4157263;28;20535;-61
2023/05/27 01:27:44;;;;;;;8.57;3.42;;;12.10;99.90;;;;;;4159120;28;20071;-61
2023/05/27 01:29:45;;;;;;;10.48;3.53;;;12.10;99.90;;;;;;4157916;28;20075;-61
2023/05/27 01:31:56;;;;;;;10.45;3.58;;;12.10;99.90;;;;;;4156826;28;20037;-61
2023/05/27 01:34:05;;;;;;;12.70;4.00;;;12.00;99.90;;;;;;4158061;28;20436;-61
2023/05/27 01:36:14;;;;;;;11.40;3.70;;;11.90;99.90;;;;;;4156838;28;20099;-61
2023/05/27 01:38:18;;;;;;;10.32;3.63;;;11.90;99.90;;;;;;4157802;28;20033;-61
2023/05/27 01:40:20;;;;;;;9.93;3.50;;;11.80;99.90;;;;;;4155781;28;20033;-61
2023/05/27 01:42:21;;;;;;;9.07;3.85;;;11.80;99.90;;;;;;4158244;28;20596;-61
2023/05/27 01:44:21;;;;;;;12.80;4.00;;;11.70;99.90;;;;;;4157528;28;20116;-61
2023/05/27 01:46:22;;;;;;;12.95;3.58;;;11.60;99.90;;;;;;4158306;28;20030;-60
2023/05/27 01:48:23;;;;;;;13.05;4.68;;;11.60;99.90;;;;;;4157998;28;20111;-61
2023/05/27 01:50:23;;;;;;;15.38;4.25;;;11.40;99.90;;;;;;4157594;28;20033;-61
2023/05/27 01:52:24;;;;;;;12.90;3.90;;;11.30;99.90;;;;;;4158695;28;20515;-61
2023/05/27 01:54:25;;;;;;;13.93;4.25;;;11.20;99.90;;;;;;4157765;28;20136;-61
2023/05/27 01:56:26;;;;;;;10.20;3.70;;;11.30;99.90;;;;;;4156486;28;20065;-61
2023/05/27 01:58:26;;;;;;;10.52;3.85;;;11.30;99.90;;;;;;4156339;28;20420;-61
2023/05/27 02:00:27;;;;;;;11.57;4.10;;;11.30;99.90;;;;;;4153857;28;20704;-61
2023/05/27 02:02:27;;;;;;;12.05;3.75;;;11.30;99.90;;;;;;4157169;28;20392;-61
2023/05/27 02:04:28;;;;;;;8.23;3.38;;;11.30;99.90;;;;;;4157031;28;20479;-61
2023/05/27 02:06:29;;;;;;;12.13;3.58;;;11.30;99.90;;;;;;4156864;28;20042;-61
2023/05/27 02:08:30;;;;;;;10.32;3.42;;;11.30;99.90;;;;;;4156654;28;20084;-61
2023/05/27 02:10:31;;;;;;;11.63;3.67;;;11.30;99.90;;;;;;4156636;28;22037;-61
2023/05/27 02:12:31;;;;;;;7.78;3.30;;;11.30;99.90;;;;;;4157026;28;20033;-61
2023/05/27 02:14:32;;;;;;;14.85;4.28;;;11.20;99.90;;;;;;4157622;28;20033;-61
2023/05/27 02:16:33;;;;;;;10.25;3.78;;;11.10;99.90;;;;;;4167391;28;20029;-61
2023/05/27 02:18:35;;;;;;;10.07;3.83;;;11.20;99.90;;;;;;4157440;28;20033;-61
2023/05/27 02:20:35;;;;;;;13.43;4.45;;;11.20;99.90;;;;;;4156288;28;20031;-61
2023/05/27 02:22:36;;;;;;;10.13;3.38;;;11.10;99.90;;;;;;4155952;28;20770;-60
2023/05/27 02:24:36;;;;;;;9.27;3.40;;;11.20;99.90;;;;;;4158965;28;20181;-61
2023/05/27 02:26:37;;;;;;;7.97;3.38;;;11.20;99.90;;;;;;4156437;28;20240;-61
2023/05/27 02:28:38;;;;;;;13.38;4.07;;;11.10;99.90;;;;;;4156186;28;20942;-61
2023/05/27 02:30:38;;;;;;;10.38;3.38;;;11.10;99.90;;;;;;4155913;28;20030;-61
2023/05/27 02:32:39;;;;;;;9.55;3.15;;;11.10;99.90;;;;;;4157177;28;20343;-61
2023/05/27 02:34:40;;;;;;;9.73;3.78;;;11.20;99.90;;;;;;4159901;28;20403;-64
2023/05/27 02:36:41;;;;;;;8.23;3.47;;;11.20;99.90;;;;;;4155487;28;20030;-64
2023/05/27 02:38:42;;;;;;;11.23;3.40;;;11.10;99.90;;;;;;4157484;28;20366;-63
2023/05/27 02:40:42;;;;;;;11.25;4.15;;;11.10;99.90;;;;;;4156131;28;20393;-63
2023/05/27 02:42:43;;;;;;;10.48;3.60;;;11.10;99.90;;;;;;4157691;28;20033;-64
2023/05/27 02:44:43;;;;;;;16.70;4.30;;;11.10;99.90;;;;;;4156158;28;20109;-65
2023/05/27 02:46:44;;;;;;;8.93;3.42;;;11.10;99.90;;;;;;4155435;28;20145;-63
2023/05/27 02:48:45;;;;;;;9.27;3.40;;;11.00;99.90;;;;;;4156569;28;20025;-63
2023/05/27 02:50:46;;;;;;;14.43;4.53;;;11.00;99.90;;;;;;4153298;28;20034;-64
2023/05/27 02:52:47;;;;;;;13.40;4.10;;;11.00;99.90;;;;;;4155770;28;20038;-63
2023/05/27 02:54:47;;;;;;;9.75;3.53;;;11.00;99.90;;;;;;4156950;28;20382;-63
2023/05/27 02:56:48;;;;;;;10.63;3.80;;;10.90;99.90;;;;;;4157895;28;20048;-64
2023/05/27 02:58:48;;;;;;;11.02;3.38;;;11.00;99.90;;;;;;4160327;28;20040;-63
2023/05/27 03:00:49;;;;;;;14.40;4.32;;;10.90;99.90;;;;;;4159612;28;20072;-63
2023/05/27 03:02:49;;;;;;;13.90;3.97;;;10.70;99.90;;;;;;4162975;28;20107;-63
2023/05/27 03:04:50;;;;;;;11.43;3.97;;;10.80;99.90;;;;;;4174381;28;20133;-63
2023/05/27 03:06:51;;;;;;;10.00;3.45;;;10.70;99.90;;;;;;4161866;28;20400;-63
2023/05/27 03:08:51;;;;;;;11.77;3.80;;;10.80;99.90;;;;;;4162025;28;20037;-63
2023/05/27 03:10:52;;;;;;;10.75;3.90;;;10.70;99.90;;;;;;4161798;28;20040;-63
2023/05/27 03:12:55;;;;;;;9.73;3.85;;;10.70;99.90;;;;;;4162337;28;20083;-63
2023/05/27 03:14:56;;;;;;;12.60;4.45;;;10.60;99.90;;;;;;4161069;28;20488;-63
2023/05/27 03:16:56;;;;;;;10.55;3.70;;;10.50;99.90;;;;;;4159874;28;20084;-63
2023/05/27 03:18:57;;;;;;;17.85;5.20;;;10.60;99.90;;;;;;4161626;28;20059;-63
2023/05/27 03:20:58;;;;;;;11.43;4.05;;;10.40;99.90;;;;;;4158639;28;20489;-63
2023/05/27 03:22:58;;;;;;;11.48;4.05;;;10.50;99.90;;;;;;4160148;28;20080;-63
2023/05/27 03:24:59;;;;;;;7.97;3.65;;;10.40;99.90;;;;;;4157388;28;20094;-63
2023/05/27 03:27:01;;;;;;;8.93;3.67;;;10.50;99.90;;;;;;4158851;28;20119;-63
2023/05/27 03:29:01;;;;;;;7.82;3.58;;;10.60;99.90;;;;;;4159683;28;20025;-63
2023/05/27 03:31:03;;;;;;;10.35;3.65;;;10.70;99.90;;;;;;4159239;28;20056;-63
2023/05/27 03:33:03;;;;;;;10.02;3.42;;;10.70;99.90;;;;;;4158953;28;20370;-63
2023/05/27 03:35:04;;;;;;;13.15;4.10;;;10.80;99.90;;;;;;4159564;28;20048;-65
2023/05/27 03:37:05;;;;;;;14.20;4.18;;;10.80;99.90;;;;;;4160926;28;20397;-63
2023/05/27 03:39:06;;;;;;;9.73;3.60;;;10.90;99.90;;;;;;4161073;28;20040;-63
2023/05/27 03:41:07;;;;;;;12.43;3.70;;;11.00;99.90;;;;;;4160763;28;20850;-63
2023/05/27 03:43:07;;;;;;;12.30;4.35;;;11.10;99.90;;;;;;4158714;28;20037;-63
2023/05/27 03:45:08;;;;;;;10.50;4.25;;;11.10;99.90;;;;;;4158933;28;20030;-63
2023/05/27 03:47:09;;;;;;;9.05;3.83;;;11.20;99.90;;;;;;4159246;28;20040;-63
2023/05/27 03:49:10;;;;;;;10.65;3.67;;;11.20;99.90;;;;;;4161265;28;20116;-63
2023/05/27 03:51:10;;;;;;;12.20;4.18;;;11.20;99.90;;;;;;4146704;28;20030;-63
2023/05/27 03:53:11;;;;;;;8.05;3.25;;;11.20;99.90;;;;;;4159206;28;20053;-63
2023/05/27 03:55:11;;;;;;;10.80;3.63;;;11.20;99.90;;;;;;4159339;28;20029;-67
2023/05/27 03:57:12;;;;;;;10.10;3.45;;;11.30;99.90;;;;;;4159466;28;20042;-63
2023/05/27 03:59:13;;;;;;;9.70;3.88;;;11.30;99.90;;;;;;4158473;28;20124;-64
2023/05/27 04:01:13;;;;;;;11.45;3.70;;;11.20;99.90;;;;;;4156846;28;20045;-64
2023/05/27 04:03:14;;;;;;;11.48;3.88;;;11.30;99.90;;;;;;4156243;28;20080;-67
2023/05/27 04:05:17;;;;;;;10.07;3.72;;;11.20;99.90;;;;;;4156685;28;20040;-64
2023/05/27 04:07:18;;;;;;;10.15;4.10;;;11.20;99.90;;;;;;4159146;28;20030;-63
2023/05/27 04:09:19;;;;;;;9.20;3.40;;;11.20;99.90;;;;;;4160369;28;20038;-63
2023/05/27 04:11:20;;;;;;;11.25;3.60;;;11.20;99.90;;;;;;4158795;28;20026;-63
2023/05/27 04:13:21;;;;;;;10.15;3.63;;;11.20;99.90;;;;;;4159797;28;20033;-63
2023/05/27 04:15:22;;;;;;;11.50;3.70;;;11.20;99.90;;;;;;4159099;28;20399;-63
2023/05/27 04:17:22;;;;;;;10.73;4.07;;;11.10;99.90;;;;;;4158652;28;20397;-63
2023/05/27 04:19:23;;;;;;;13.65;4.28;;;11.10;99.90;;;;;;4158900;28;20362;-63
2023/05/27 04:21:24;;;;;;;9.75;3.22;;;11.00;99.90;;;;;;4159680;28;20033;-63
2023/05/27 04:23:24;;;;;;;11.63;3.67;;;10.90;99.90;;;;;;4160064;28;20555;-63
2023/05/27 04:25:25;;;;;;;12.60;4.60;;;11.00;99.90;;;;;;4158658;28;20083;-63
2023/05/27 04:27:26;;;;;;;9.85;3.65;;;11.00;99.90;;;;;;4156302;28;20045;-63
2023/05/27 04:29:27;;;;;;;11.77;4.28;;;11.00;99.90;;;;;;4158906;28;20120;-63
2023/05/27 04:31:30;;;;;;;9.60;3.72;;;11.00;99.90;;;;;;4157473;28;20068;-63
2023/05/27 04:33:31;;;;;;;13.77;4.40;;;11.10;99.90;;;;;;4155046;28;20148;-63
2023/05/27 04:35:32;;;;;;;16.75;5.07;;;11.00;99.90;;;;;;4158146;28;20516;-63
2023/05/27 04:37:32;;;;;;;12.60;4.20;;;11.00;99.90;;;;;;4156836;28;20119;-63
2023/05/27 04:39:33;;;;;;;15.18;4.72;;;11.00;99.90;;;;;;4159357;28;20108;-63
2023/05/27 04:41:34;;;;;;;10.85;4.25;;;11.00;99.90;;;;;;4156892;28;20025;-63
2023/05/27 04:43:34;;;;;;;8.57;3.35;;;11.00;99.90;;;;;;4158881;28;20116;-63
2023/05/27 04:45:35;;;;;;;12.85;4.40;;;11.10;99.90;;;;;;4159902;28;20108;-63
2023/05/27 04:47:40;;;;;;;15.57;4.47;;;11.00;99.90;;;;;;4157973;28;20041;-63
2023/05/27 04:49:41;;;;;;;9.52;3.72;;;11.10;99.90;;;;;;4154846;28;20087;-63
2023/05/27 04:51:42;;;;;;;11.70;3.92;;;11.10;99.90;;;;;;4158132;28;20037;-63
2023/05/27 04:53:43;;;;;;;15.18;4.88;;;11.10;99.90;;;;;;4158126;28;20060;-63
2023/05/27 04:55:44;;;;;;;11.30;3.65;;;11.20;99.90;;;;;;4158108;28;20051;-64
2023/05/27 04:57:45;;;;;;;11.27;4.10;;;11.20;99.90;;;;;;4158926;28;20779;-64
2023/05/27 04:59:58;;;;;;;12.80;4.05;;;11.20;99.90;;;;;;4157872;28;20037;-64
2023/05/27 05:02:11;;;;;;;12.80;4.85;;;11.20;99.90;;;;;;4152924;28;20044;-63
2023/05/27 05:04:12;;;;;;;;;;;11.30;99.90;;;;;;4159103;28;20388;-63
2023/05/27 05:06:12;;;;;;;16.75;4.63;;;11.30;99.90;;;;;;4157721;28;20424;-63
2023/05/27 05:08:13;;;;;;;15.23;4.63;;;11.10;99.90;;;;;;4158640;28;20026;-64
2023/05/27 05:10:13;;;;;;;12.40;4.28;;;11.10;99.90;;;;;;4157309;28;20042;-63
2023/05/27 05:12:14;;;;;;;19.33;5.13;;;11.10;99.90;;;;;;4159384;28;20033;-63
2023/05/27 05:14:14;;;;;;;10.20;4.32;;;11.00;99.90;;;;;;4157731;28;20553;-63
2023/05/27 05:16:15;;;;;;;9.90;3.85;;;11.10;99.90;;;;;;4159732;28;20051;-66
2023/05/27 05:18:16;;;;;;;16.80;4.20;;;11.20;99.90;;;;;;4160304;28;20405;-64
2023/05/27 05:20:16;;;;;;;13.18;4.50;;;11.20;99.90;;;;;;4157016;28;20041;-65
2023/05/27 05:22:18;;;;;;;12.15;4.47;;;11.20;99.90;;;;;;4152831;28;20046;-65
2023/05/27 05:24:19;;;;;;;12.75;4.45;;;11.30;99.90;;;;;;4151863;28;20080;-65
2023/05/27 05:26:19;;;;;;;16.83;5.18;;;11.30;99.90;;;;;;4157183;28;20497;-65
2023/05/27 05:28:20;;;;;;;17.45;6.10;;;11.20;99.90;;;;;;4155051;28;20535;-64
2023/05/27 05:30:21;;;;;;;12.18;4.53;;;11.10;99.90;;;;;;4155054;28;20026;-64
2023/05/27 05:32:22;;;;;;;14.63;5.07;;;11.20;99.90;;;;;;4154900;28;20053;-64
2023/05/27 05:34:22;;;;;;;14.55;5.18;;;11.20;99.90;;;;;;4157109;28;20041;-64
2023/05/27 05:36:23;;;;;;;15.45;5.57;;;11.10;99.90;;;;;;4156952;28;20733;-64
2023/05/27 05:38:25;;;;;;;23.17;5.57;;;11.10;99.90;;;;;;4158185;28;20046;-64
2023/05/27 05:40:25;;;;;;;16.90;5.80;;;11.10;99.90;;;;;;4156019;28;20060;-64
2023/05/27 05:42:26;;;;;;;15.63;4.82;;;11.10;99.90;;;;;;4158793;28;20045;-64
2023/05/27 05:44:26;;;;;;;14.88;5.45;;;11.30;99.90;;;;;;4157493;28;20481;-64
2023/05/27 05:46:27;;;;;;;13.80;4.55;;;11.30;99.90;;;;;;4155876;28;20026;-64
2023/05/27 05:48:28;;;;;;;14.48;5.15;;;11.40;99.90;;;;;;4157329;28;20100;-64
2023/05/27 05:50:28;;;;;;;14.50;5.10;;;11.40;99.90;;;;;;4153223;28;20021;-64
2023/05/27 05:52:29;;;;;;;16.75;6.32;;;11.40;99.90;;;;;;4157399;28;20390;-64
2023/05/27 05:54:30;;;;;;;17.23;5.22;;;11.50;99.90;;;;;;4154664;28;20061;-64
2023/05/27 05:56:31;;;;;;;14.75;5.90;;;11.70;99.90;;;;;;4156864;28;20072;-64
2023/05/27 05:58:31;;;;;;;16.52;6.10;;;12.00;99.90;;;;;;4157244;28;20033;-64
2023/05/27 06:00:33;;;;;;;19.08;5.97;;;12.40;99.90;;;;;;4158044;28;20125;-64
2023/05/27 06:02:33;;;;;;;18.25;6.15;;;12.70;99.90;;;;;;4158530;28;20040;-64
2023/05/27 06:04:34;;;;;;;17.13;5.68;;;12.90;99.90;;;;;;4160042;28;20112;-64
2023/05/27 06:06:34;;;;;;;17.40;5.90;;;13.30;99.90;;;;;;4159116;28;20499;-64
2023/05/27 06:08:35;;;;;;;18.13;6.13;;;13.50;99.90;;;;;;4158314;28;20541;-64
2023/05/27 06:10:36;;;;;;;14.65;5.43;;;13.80;99.90;;;;;;4157627;28;20115;-64
2023/05/27 06:12:36;;;;;;;13.60;5.15;;;14.10;99.90;;;;;;4159431;28;20480;-64
2023/05/27 06:14:37;;;;;;;12.27;4.35;;;14.30;99.90;;;;;;4159277;28;20041;-64
2023/05/27 06:16:39;;;;;;;12.50;5.50;;;14.70;99.90;;;;;;4158267;28;20053;-65
2023/05/27 06:18:40;;;;;;;20.52;6.03;;;15.10;99.90;;;;;;4158752;28;20033;-65
2023/05/27 06:20:40;;;;;;;16.23;5.30;;;15.30;99.90;;;;;;4157186;28;20380;-65
2023/05/27 06:22:41;;;;;;;13.15;5.25;;;15.50;99.90;;;;;;4159860;28;20049;-64
2023/05/27 06:24:41;;;;;;;15.07;5.18;;;15.70;99.90;;;;;;4158554;28;20083;-65
2023/05/27 06:26:42;;;;;;;13.40;4.35;;;15.60;99.90;;;;;;4157104;28;20029;-65
2023/05/27 06:28:42;;;;;;;16.15;5.63;;;15.90;99.90;;;;;;4154808;28;20124;-65
2023/05/27 06:30:43;;;;;;;18.05;5.30;;;15.90;99.90;;;;;;4155178;28;20109;-65
2023/05/27 06:32:44;;;;;;;13.75;4.95;;;15.90;99.90;;;;;;4163261;28;20048;-64
2023/05/27 06:34:46;;;;;;;14.35;5.30;;;15.70;99.90;;;;;;4162321;28;20033;-65
2023/05/27 06:36:48;;;;;;;13.80;4.68;;;15.70;99.90;;;;;;4160043;28;20079;-66
2023/05/27 06:38:49;;;;;;;10.93;4.63;;;15.90;99.90;;;;;;4156598;28;20034;-65
2023/05/27 06:40:50;;;;;;;15.30;5.25;;;16.00;99.90;;;;;;4161100;28;20783;-65
2023/05/27 06:42:51;;;;;;;17.02;5.60;;;16.20;99.90;;;;;;4156385;28;20037;-65
2023/05/27 06:44:51;;;;;;;20.67;6.45;;;16.20;99.90;;;;;;4162905;28;20045;-65
2023/05/27 06:46:52;;;;;;;14.80;5.38;;;16.20;99.90;;;;;;4161218;28;20060;-65
2023/05/27 06:48:52;;;;;;;14.48;5.38;;;16.20;99.90;;;;;;4162260;28;20038;-65
2023/05/27 06:50:53;;;;;;;15.80;4.90;;;16.30;99.90;;;;;;4161981;28;20045;-65
2023/05/27 06:52:54;;;;;;;14.68;4.65;;;16.30;99.90;;;;;;4162694;28;20042;-65
2023/05/27 06:54:54;;;;;;;18.67;5.57;;;16.40;99.90;;;;;;4159625;28;20087;-65
2023/05/27 06:56:55;;;;;;;16.08;5.72;;;16.60;99.90;;;;;;4156497;28;20171;-65
2023/05/27 06:58:56;;;;;;;13.10;4.75;;;16.70;99.90;;;;;;4160443;28;20044;-65
2023/05/27 07:00:56;;;;;;;12.82;5.03;;;16.70;99.90;;;;;;4157671;28;20041;-65
2023/05/27 07:02:57;;;;;;;15.30;5.13;;;16.80;99.90;;;;;;4161326;28;20045;-65
2023/05/27 07:04:58;;;;;;;16.33;5.90;;;16.80;99.90;;;;;;4159718;28;20037;-65
2023/05/27 07:06:58;;;;;;;13.88;4.88;;;16.80;99.90;;;;;;4160102;28;20071;-65
2023/05/27 07:08:59;;;;;;;16.65;5.40;;;17.00;99.90;;;;;;4160947;28;20400;-65
2023/05/27 07:10:59;;;;;;;13.70;5.35;;;17.10;99.90;;;;;;4159451;28;20481;-65
2023/05/27 07:13:00;;;;;;;12.15;4.50;;;17.10;99.90;;;;;;4161217;28;20042;-65
2023/05/27 07:15:01;;;;;;;14.90;5.13;;;17.30;99.90;;;;;;4159921;28;20037;-65
2023/05/27 07:17:01;;;;;;;13.15;5.10;;;17.30;99.90;;;;;;4159552;28;20102;-65
2023/05/27 07:19:02;;;;;;;15.48;5.90;;;17.50;99.90;;;;;;4159077;28;20034;-65
2023/05/27 07:21:03;;;;;;;15.15;5.28;;;17.40;99.90;;;;;;4158296;28;20025;-65
2023/05/27 07:23:04;;;;;;;11.40;4.90;;;17.40;99.90;;;;;;4159520;28;20125;-65
2023/05/27 07:25:05;;;;;;;15.85;5.20;;;17.40;99.90;;;;;;4160396;28;20105;-66
2023/05/27 07:27:06;;;;;;;11.48;4.65;;;17.40;99.90;;;;;;4160363;28;20041;-65
2023/05/27 07:29:08;;;;;;;11.00;5.37;;;17.50;99.90;;;;;;4159982;28;20065;-66
2023/05/27 07:31:09;;;;;;;21.77;6.32;;;17.40;99.90;;;;;;4161377;28;20569;-65
2023/05/27 07:33:09;;;;;;;13.48;5.10;;;17.60;99.90;;;;;;4162501;28;20057;-65
2023/05/27 07:35:10;;;;;;;11.55;4.72;;;17.60;99.90;;;;;;4161540;28;20083;-65
2023/05/27 07:37:11;;;;;;;12.20;4.90;;;17.80;99.90;;;;;;4161309;28;20041;-66
2023/05/27 07:39:11;;;;;;;12.63;4.72;;;17.90;99.90;;;;;;4161599;28;20040;-65
2023/05/27 07:41:12;;;;;;;10.82;4.47;;;18.10;99.90;;;;;;4159295;28;20797;-65
2023/05/27 07:43:13;;;;;;;13.18;5.15;;;18.20;99.90;;;;;;4161957;28;20045;-65
2023/05/27 07:45:14;;;;;;;16.33;5.72;;;18.20;99.90;;;;;;4159668;28;20030;-66
2023/05/27 07:47:14;;;;;;;14.77;5.07;;;18.10;99.90;;;;;;4160608;28;20033;-65
2023/05/27 07:49:15;;;;;;;13.27;4.82;;;18.00;99.90;;;;;;4159488;28;20034;-65
2023/05/27 07:51:16;;;;;;;10.68;4.50;;;18.00;99.90;;;;;;4158863;28;20539;-66
2023/05/27 07:53:16;;;;;;;13.48;4.72;;;18.10;99.90;;;;;;4159816;28;20033;-66
2023/05/27 07:55:17;;;;;;;8.23;3.92;;;18.30;99.90;;;;;;4155630;28;20115;-66
2023/05/27 07:57:17;;;;;;;12.40;4.72;;;18.50;99.90;;;;;;4159660;28;20038;-68
2023/05/27 07:59:18;;;;;;;16.45;6.18;;;18.70;99.90;;;;;;4159595;28;20041;-66
2023/05/27 08:01:19;;;;;;;10.27;4.20;;;18.70;99.90;;;;;;4158907;28;20036;-66
2023/05/27 08:03:20;;;;;;;14.18;4.50;;;18.80;99.90;;;;;;4158432;28;20056;-66
2023/05/27 08:05:21;;;;;;;11.82;4.53;;;18.90;99.90;;;;;;4159174;28;20033;-66
2023/05/27 08:07:21;;;;;;;14.00;4.88;;;19.00;99.90;;;;;;4160401;28;20409;-66
2023/05/27 08:09:22;;;;;;;20.02;5.47;;;19.20;99.90;;;;;;4159731;28;20033;-66
2023/05/27 08:11:22;;;;;;;19.33;5.90;;;19.10;99.90;;;;;;4157921;28;20029;-67
2023/05/27 08:13:23;;;;;;;13.45;5.45;;;18.90;99.90;;;;;;4158792;28;20037;-66
2023/05/27 08:15:23;;;;;;;10.77;3.80;;;18.80;99.90;;;;;;4158969;28;20043;-66
2023/05/27 08:17:24;;;;;;;8.27;3.60;;;19.00;99.90;;;;;;4159906;28;20037;-66
2023/05/27 08:19:25;;;;;;;12.10;5.00;;;19.10;99.90;;;;;;4159038;28;20538;-66
2023/05/27 08:21:25;;;;;;;17.30;5.10;;;19.10;99.90;;;;;;4158426;28;20044;-66
2023/05/27 08:23:26;;;;;;;14.75;5.50;;;19.10;99.90;;;;;;4159787;28;20095;-66
2023/05/27 08:25:26;;;;;;;14.05;4.75;;;19.20;99.90;;;;;;4158692;28;21571;-66
2023/05/27 08:27:46;;;;;;;11.38;4.07;;;19.30;99.90;;;;;;4157902;28;20021;-66
2023/05/27 08:29:47;;;;;;;16.48;5.93;;;19.50;99.90;;;;;;4159140;28;20033;-65
2023/05/27 08:31:51;;;;;;;13.00;4.63;;;19.30;99.90;;;;;;4157309;28;20033;-66
2023/05/27 08:33:52;;;;;;;11.82;4.70;;;19.40;99.90;;;;;;4158200;28;20037;-66
2023/05/27 08:35:53;;;;;;;11.07;4.63;;;19.60;99.90;;;;;;4157917;28;20044;-66
2023/05/27 08:37:53;;;;;;;10.23;3.85;;;19.70;99.90;;;;;;4157890;28;20063;-65
2023/05/27 08:39:54;;;;;;;12.32;4.18;;;19.90;99.90;;;;;;4160196;28;20147;-66
2023/05/27 08:41:55;;;;;;;15.07;5.10;;;20.00;99.90;;;;;;4157520;28;20202;-65
2023/05/27 08:43:56;;;;;;;12.55;5.07;;;19.90;99.90;;;;;;4157188;28;20026;-66
2023/05/27 08:45:58;;;;;;;8.65;4.18;;;19.90;99.90;;;;;;4157881;28;20034;-66
2023/05/27 08:47:59;;;;;;;11.45;4.10;;;20.10;99.90;;;;;;4157652;28;20033;-66
2023/05/27 08:50:01;;;;;;;15.27;4.68;;;20.10;99.90;;;;;;4158470;28;20091;-66
2023/05/27 08:52:02;;;;;;;14.20;5.00;;;20.20;99.90;;;;;;4157008;28;20060;-66
2023/05/27 08:54:03;;;;;;;14.57;4.70;;;20.10;99.90;;;;;;4155296;28;20030;-66
2023/05/27 08:56:06;;;;;;;11.57;4.15;;;20.00;99.70;;;;;;4157606;28;20648;-66
2023/05/27 08:58:08;;;;;;;18.13;5.28;;;20.00;99.90;;;;;;4160437;28;20520;-66
2023/05/27 09:00:13;;;;;;;13.13;5.20;;;19.90;99.90;;;;;;4158315;28;20037;-66
2023/05/27 09:02:14;;;;;;;10.88;3.97;;;19.80;99.90;;;;;;4155263;28;20048;-66
2023/05/27 09:04:15;;;;;;;14.70;4.65;;;20.00;99.90;;;;;;4157447;28;20419;-66
2023/05/27 09:06:15;;;;;;;13.10;5.22;;;19.90;99.90;;;;;;4158749;28;20033;-66
2023/05/27 09:08:16;;;;;;;8.00;3.50;;;19.90;99.90;;;;;;4160516;28;20037;-66
2023/05/27 09:10:16;;;;;;;13.90;4.22;;;20.00;99.90;;;;;;4158453;28;20140;-66
2023/05/27 09:12:23;;;;;;;17.17;4.85;;;20.10;99.90;;;;;;4160339;28;20488;-66
2023/05/27 09:14:24;;;;;;;12.18;4.07;;;20.30;99.90;;;;;;4159330;28;20032;-67
2023/05/27 09:16:24;;;;;;;10.38;3.53;;;20.40;99.90;;;;;;4157200;28;20463;-66
2023/05/27 09:18:26;;;;;;;9.65;3.92;;;20.50;99.90;;;;;;4159851;28;20481;-67
2023/05/27 09:20:28;;;;;;;8.05;3.47;;;20.60;99.90;;;;;;4156295;28;20045;-66
2023/05/27 09:22:30;;;;;;;12.20;5.05;;;20.70;99.90;;;;;;4158415;28;20501;-66
2023/05/27 09:24:31;;;;;;;8.35;3.75;;;20.90;99.90;;;;;;4158173;28;20033;-66
2023/05/27 09:26:33;;;;;;;11.00;4.40;;;21.00;99.90;;;;;;4157765;28;20037;-67
2023/05/27 09:28:35;;;;;;;12.43;4.80;;;21.10;99.90;;;;;;4159473;28;20044;-67
2023/05/27 09:30:36;;;;;;;14.23;4.88;;;21.20;99.90;;;;;;4159593;28;20029;-67
2023/05/27 09:32:37;;;;;;;12.80;4.68;;;21.20;99.90;;;;;;4156488;28;20040;-67
2023/05/27 09:34:39;;;;;;;14.00;4.45;;;21.30;99.90;;;;;;4159001;28;20026;-66
2023/05/27 09:36:47;;;;;;;13.88;4.78;;;21.10;99.90;;;;;;4185534;28;20557;-67
2023/05/27 09:38:48;;;;;;;12.27;4.45;;;20.90;98.00;;;;;;4157307;28;20496;-66
2023/05/27 09:40:48;;;;;;;11.30;4.43;;;20.80;98.60;;;;;;4153646;28;20093;-66
2023/05/27 09:42:50;;;;;;;13.05;4.32;;;20.80;98.90;;;;;;4157271;28;20079;-67
2023/05/27 09:44:53;;;;;;;12.93;4.93;;;20.60;99.30;;;;;;4155614;28;20025;-66
2023/05/27 09:46:55;;;;;;;13.75;4.72;;;20.50;97.80;;;;;;4151948;28;20035;-67
2023/05/27 09:48:58;;;;;;;11.15;4.13;;;20.50;99.00;;;;;;4184198;28;20071;-67
2023/05/27 09:51:03;;;;;;;12.18;4.22;;;20.50;98.70;;;;;;4159069;28;20384;-66
2023/05/27 09:53:04;;;;;;;12.68;3.83;;;20.60;98.90;;;;;;4157737;28;20443;-66
2023/05/27 09:55:11;;;;;;;8.50;3.65;;;20.60;98.10;;;;;;4158263;28;20778;-67
2023/05/27 09:57:13;;;;;;;11.38;4.00;;;20.80;99.90;;;;;;4152110;28;20558;-66
2023/05/27 09:59:13;;;;;;;12.90;3.70;;;20.90;99.40;;;;;;4157129;28;20099;-66
2023/05/27 10:01:17;;;;;;;12.52;4.72;;;21.10;99.90;;;;;;4155033;28;20080;-66
2023/05/27 10:03:21;;;;;;;9.07;3.70;;;21.10;99.00;;;;;;4157811;28;20403;-66
2023/05/27 10:05:22;;;;;;;17.60;5.50;;;21.20;97.50;;;;;;4160248;28;20037;-67
2023/05/27 10:07:23;;;;;;;16.80;4.90;;;21.20;96.60;;;;;;4162180;28;20129;-67
2023/05/27 10:09:24;;;;;;;14.27;4.55;;;21.00;95.90;;;;;;4163146;28;20029;-67
2023/05/27 10:11:28;;;;;;;12.43;4.88;;;21.10;97.60;;;;;;4159295;28;20037;-67
2023/05/27 10:13:29;;;;;;;7.40;3.40;;;21.00;95.60;;;;;;4160735;28;20132;-66
2023/05/27 10:15:33;;;;;;;6.25;3.05;;;21.20;97.10;;;;;;4160502;28;20045;-66
2023/05/27 10:17:53;;;;;;;14.20;4.57;;;21.20;96.00;;;;;;4192704;28;20086;-66
2023/05/27 10:19:55;;;;;;;7.95;3.47;;;21.20;95.90;;;;;;4160941;28;20034;-64
2023/05/27 10:22:06;;;;;;;7.95;3.30;;;21.30;97.40;;;;;;4162087;28;20111;-64
2023/05/27 10:24:10;;;;;;;8.68;3.30;;;21.50;98.80;;;;;;4161481;28;20050;-63
2023/05/27 10:26:11;;;;;;;13.45;4.32;;;21.60;97.90;;;;;;4160663;28;20082;-64